Latest Weather Observations for Coober Pedy Airport

IDS60801

Issued at 1:05 pm CDT Saturday 22 November 2014 (issued every 30 minutes, with the page automatically refreshed every 10 minutes)

About weather observations | Map of weather stations | Latest weather observations for SA | Other Formats
Station Details ID: 016090 Name: COOBER PEDY AIRPORT Lat: -29.03 Lon: 134.72 Height: 225.0 m
Data from the previous 72 hours. | See also: Recent months at Coober Pedy Airport
Date/Time
CDT
Temp
°C
App
Temp
°C
Dew
Point
Rel
Hum
%
Delta-T
°C
Wind Press
QNH
hPa
Press
MSL
hPa
Rain
since 9 am
mm
Dir
 
Spd
km/h
Gust
km/h
Spd
kts
Gust
kts
22/01:00pm 43.1 37.0 4.9 10 21.5 W 26 35 14 19 1006.3 1005.2 0.0
22/12:30pm 41.5 34.4 3.7 10 20.7 NW 30 43 16 23 1006.6 1005.5 0.0
22/12:11pm 41.8 35.7 6.6 12 20.2 NW 28 46 15 25 1006.7 1005.6 0.0
22/12:00pm 41.5 35.4 6.4 12 20.0 NW 28 35 15 19 1006.8 1005.7 0.0
22/11:30am 41.4 35.7 8.5 14 19.3 NW 28 37 15 20 1006.9 1005.8 0.0
22/11:00am 40.4 35.3 7.8 14 18.8 NW 24 33 13 18 1006.9 1005.8 0.0
22/10:30am 38.9 35.5 11.1 19 16.8 NNW 20 26 11 14 1006.9 1005.8 0.0
22/10:00am 37.2 33.0 11.2 21 15.6 NW 24 30 13 16 1006.8 1005.7 0.0
22/09:30am 35.5 31.3 12.5 25 14.0 NW 26 32 14 17 1006.6 1005.5 0.0
22/09:00am 32.6 29.0 11.7 28 12.4 NW 22 28 12 15 1006.6 1005.5 0.0
22/08:30am 30.1 26.9 11.1 31 11.1 N 19 22 10 12 1006.5 1005.4 0.0
22/08:00am 28.7 25.6 10.4 32 10.4 NNE 17 20 9 11 1006.2 1005.1 0.0
22/07:30am 27.3 24.4 10.9 36 9.4 NE 17 19 9 10 1006.0 1004.8 0.0
22/07:00am 26.3 23.4 10.9 38 8.8 NE 17 19 9 10 1005.6 1004.4 0.0
22/06:30am 26.4 23.5 10.9 38 8.9 NE 17 20 9 11 1005.6 1004.4 0.0
22/06:00am 26.5 23.6 11.0 38 8.9 NE 17 20 9 11 1005.5 1004.3 0.0
22/05:30am 26.4 23.2 11.3 39 8.7 ENE 19 20 10 11 1005.5 1004.3 0.0
22/05:00am 26.5 23.3 11.4 39 8.7 ENE 19 20 10 11 1005.4 1004.2 0.0
22/04:30am 26.8 23.7 11.7 39 8.8 E 19 20 10 11 1005.5 1004.3 0.0
22/04:00am 26.8 23.7 11.7 39 8.7 E 19 20 10 11 1005.5 1004.3 0.0
22/03:30am 27.1 24.4 11.6 38 9.0 E 17 19 9 10 1006.0 1004.8 0.0
22/03:00am 28.2 25.9 11.7 36 9.6 ESE 15 17 8 9 1006.4 1005.3 0.0
22/02:30am 29.1 27.9 11.6 33 10.2 ESE 9 11 5 6 1006.5 1005.4 0.0
22/02:00am 29.7 27.0 11.7 33 10.5 ENE 17 20 9 11 1006.5 1005.4 0.0
22/01:30am 30.0 27.6 11.5 32 10.8 E 15 20 8 11 1006.5 1005.4 0.0
22/01:00am 30.3 27.6 11.8 32 10.9 E 17 20 9 11 1006.6 1005.5 0.0
22/12:30am 30.9 27.7 11.8 31 11.3 E 20 26 11 14 1006.8 1005.7 0.0
22/12:00am 31.4 27.8 11.7 29 11.6 E 22 26 12 14 1006.9 1005.8 0.0
 
Date/Time
CDT
Temp
°C
App
Temp
°C
Dew
Point
Rel
Hum
%
Delta-T
°C
Wind Press
QNH
hPa
Press
MSL
hPa
Rain
since 9 am
mm
Dir
 
Spd
km/h
Gust
km/h
Spd
kts
Gust
kts
21/11:30pm 31.8 28.3 12.1 30 11.7 E 22 26 12 14 1007.0 1005.9 0.0
21/11:00pm 32.2 29.0 11.9 29 12.1 E 20 28 11 15 1007.1 1006.0 0.0
21/10:30pm 32.0 29.9 12.3 30 11.8 E 15 19 8 10 1007.2 1006.1 0.0
21/10:00pm 32.4 30.7 12.6 30 11.9 E 13 15 7 8 1007.2 1006.1 0.0
21/09:30pm 33.2 31.6 12.8 29 12.4 E 13 15 7 8 1007.1 1006.0 0.0
21/09:00pm 34.0 32.7 12.4 27 13.0 E 11 13 6 7 1007.0 1005.9 0.0
21/08:30pm 34.9 33.8 11.9 24 13.8 E 9 11 5 6 1006.9 1005.8 0.0
21/08:00pm 35.9 33.7 10.9 22 14.8 NE 13 15 7 8 1006.8 1005.7 0.0
21/07:30pm 36.4 35.3 10.6 21 15.3 N 7 11 4 6 1006.7 1005.6 0.0
21/07:00pm 37.0 34.9 11.1 21 15.5 NW 13 24 7 13 1006.8 1005.7 0.0
21/06:30pm 36.6 33.2 10.7 21 15.4 N 19 26 10 14 1007.1 1006.0 0.0
21/06:00pm 37.7 34.0 11.6 21 15.8 NNE 22 28 12 15 1007.1 1006.0 0.0
21/05:30pm 36.3 32.5 11.2 22 15.0 NNE 22 35 12 19 1007.4 1006.3 0.0
21/05:00pm 36.4 33.2 11.9 23 14.8 NW 20 24 11 13 1007.7 1006.6 0.0
21/04:30pm 36.2 33.2 12.4 24 14.5 NNE 20 28 11 15 1008.2 1007.0 0.0
21/04:00pm 35.4 34.1 12.4 25 13.9 E 11 17 6 9 1008.6 1007.4 0.0
21/03:30pm 34.9 32.8 12.5 25 13.6 NE 15 22 8 12 1009.3 1008.1 0.0
21/03:00pm 35.0 33.9 13.2 27 13.4 NNE 11 32 6 17 1009.8 1008.6 0.0
21/02:30pm 34.0 32.8 12.9 28 12.8 NE 11 24 6 13 1010.4 1009.3 0.0
21/02:00pm 32.8 31.4 13.4 30 11.8 ENE 13 24 7 13 1011.0 1009.9 0.0
21/01:30pm 31.9 29.5 12.7 31 11.5 NE 17 24 9 13 1011.6 1010.5 0.0
21/01:00pm 31.3 28.9 12.6 31 11.2 NE 17 26 9 14 1012.1 1011.0 0.0
21/12:30pm 30.0 28.7 12.4 34 10.4 SSE 11 19 6 10 1012.9 1011.7 0.0
21/12:00pm 29.3 26.4 12.3 35 10.0 E 19 28 10 15 1013.4 1012.2 0.0
21/11:30am 28.3 25.4 12.2 37 9.4 E 19 26 10 14 1013.6 1012.4 0.0
21/11:00am 28.3 25.5 12.6 38 9.3 ESE 19 26 10 14 1013.9 1012.7 0.0
21/10:30am 26.7 23.8 12.4 41 8.4 ESE 19 28 10 15 1014.2 1013.1 0.0
21/10:00am 25.4 22.3 12.3 44 7.6 SE 20 28 11 15 1014.3 1013.2 0.0
21/09:30am 24.4 21.0 12.4 47 6.9 ESE 22 30 12 16 1014.3 1013.2 0.0
21/09:00am 22.7 18.5 12.3 52 6.0 ESE 26 32 14 17 1014.1 1013.0 0.8
21/08:30am 22.3 18.3 11.7 51 6.0 SE 24 35 13 19 1013.9 1012.7 0.8
21/08:00am 21.5 17.4 12.6 57 5.1 SE 26 35 14 19 1013.8 1012.6 0.8
21/07:30am 20.4 17.3 13.4 64 4.0 SE 22 28 12 15 1013.4 1012.2 0.8
21/07:00am 19.9 17.5 13.8 68 3.5 SE 19 24 10 13 1013.2 1012.0 0.8
21/06:30am 19.6 16.6 13.8 69 3.4 SE 22 26 12 14 1012.6 1011.5 0.8
21/06:00am 19.9 16.5 13.6 67 3.6 SE 24 28 13 15 1012.2 1011.1 0.8
21/05:30am 20.2 16.8 13.6 66 3.8 SE 24 30 13 16 1011.9 1010.8 0.8
21/05:00am 20.6 17.3 14.0 66 3.9 SE 24 32 13 17 1011.7 1010.6 0.8
21/04:30am 21.1 16.5 13.5 62 4.4 SSE 30 39 16 21 1011.8 1010.7 0.8
21/04:00am 21.6 18.0 14.3 63 4.3 SSE 26 35 14 19 1011.8 1010.7 0.8
21/03:30am 21.9 19.0 15.0 65 4.1 SSE 24 28 13 15 1011.6 1010.5 0.8
21/03:00am 22.3 19.1 15.2 64 4.3 SSE 26 32 14 17 1011.5 1010.4 0.8
21/02:30am 22.7 20.8 15.8 65 4.2 SSE 20 28 11 15 1011.7 1010.6 0.8
21/02:00am 23.2 20.1 15.5 62 4.7 SSE 26 33 14 18 1011.9 1010.8 0.8
21/01:30am 24.1 21.4 15.6 59 5.2 SSE 24 30 13 16 1012.0 1010.9 0.8
21/01:00am 24.4 22.8 15.9 59 5.2 S 19 22 10 12 1012.1 1011.0 0.8
21/12:30am 25.0 23.2 15.6 56 5.7 S 19 22 10 12 1012.1 1011.0 0.8
21/12:00am 25.4 23.9 16.3 57 5.6 S 19 22 10 12 1012.1 1011.0 0.8
 
Date/Time
CDT
Temp
°C
App
Temp
°C
Dew
Point
Rel
Hum
%
Delta-T
°C
Wind Press
QNH
hPa
Press
MSL
hPa
Rain
since 9 am
mm
Dir
 
Spd
km/h
Gust
km/h
Spd
kts
Gust
kts
20/11:30pm 25.8 24.4 16.6 56 5.7 S 19 20 10 11 1012.0 1010.9 0.8
20/11:00pm 26.2 25.6 16.7 56 5.9 S 15 17 8 9 1011.9 1010.8 0.8
20/10:30pm 26.8 26.1 16.4 53 6.5 S 15 17 8 9 1011.8 1010.7 0.8
20/10:00pm 27.4 27.1 16.4 51 6.9 S 13 15 7 8 1011.6 1010.5 0.8
20/09:30pm 27.9 27.8 15.9 48 7.5 SSE 11 13 6 7 1011.6 1010.5 0.8
20/09:00pm 28.4 27.8 15.7 46 7.9 S 13 17 7 9 1011.3 1010.2 0.8
20/08:30pm 28.8 28.1 15.3 43 8.3 SSW 13 17 7 9 1010.9 1009.8 0.8
20/08:00pm 29.4 28.0 14.4 40 9.2 SW 15 19 8 10 1010.5 1009.4 0.8
20/07:30pm 29.8 28.0 14.4 39 9.4 SSW 17 20 9 11 1010.2 1009.1 0.8
20/07:00pm 30.3 27.5 14.4 38 9.7 SSW 22 32 12 17 1009.8 1008.6 0.8
20/06:30pm 31.0 27.2 14.6 37 10.1 WSW 28 35 15 19 1009.7 1008.5 0.8
20/06:00pm 30.9 26.8 14.9 37 9.9 SW 30 33 16 18 1009.7 1008.5 0.8
20/05:30pm 30.8 27.4 14.8 37 9.9 WSW 26 37 14 20 1009.8 1008.6 0.8
20/05:00pm 31.1 27.9 14.3 36 10.3 SW 24 32 13 17 1009.8 1008.6 0.8
20/04:30pm 31.2 28.1 15.6 39 9.8 WSW 26 39 14 21 1009.8 1008.6 0.8
20/04:00pm 31.0 28.4 15.0 38 9.9 WSW 22 32 12 17 1010.1 1009.0 0.8
20/03:30pm 30.7 28.3 15.5 39 9.5 WSW 22 33 12 18 1010.3 1009.2 0.8
20/03:00pm 30.2 28.4 15.9 42 9.0 WSW 20 30 11 16 1010.7 1009.6 0.8
20/02:30pm 29.4 28.1 15.9 44 8.4 W 17 26 9 14 1011.0 1009.9 0.8
20/02:00pm 28.4 27.9 16.0 47 7.7 W 13 20 7 11 1011.5 1010.4 0.8
20/01:30pm 27.1 27.8 17.0 54 6.4 NW 9 15 5 8 1011.8 1010.7 0.8
20/01:00pm 26.4 26.4 17.2 57 5.8 N 13 19 7 10 1012.3 1011.2 0.8
20/12:30pm 26.0 26.3 16.0 54 6.2 N 9 15 5 8 1012.5 1011.4 0.8
20/12:00pm 24.5 25.2 15.7 58 5.4 SW 6 11 3 6 1013.0 1011.8 0.6
20/11:30am 23.3 22.6 17.3 69 3.7 WSW 17 20 9 11 1013.3 1012.1 0.6
20/11:00am 21.6 20.5 17.4 77 2.6 WSW 19 20 10 11 1013.7 1012.5 0.6
20/10:30am 20.9 22.6 18.5 86 1.5 SW 7 22 4 12 1014.0 1012.8 0.6
20/10:00am 20.0 18.5 17.6 86 1.5 SW 22 33 12 18 1014.4 1013.3 0.6
20/09:30am 19.8 18.8 17.6 87 1.4 WSW 19 22 10 12 1014.9 1013.8 0.6
20/09:00am 19.0 18.8 17.7 92 0.8 WNW 15 20 8 11 1014.9 1013.8 5.6
20/08:30am 19.2 15.2 17.7 91 0.9 WSW 35 43 19 23 1015.8 1014.7 3.8
20/08:00am 19.3 15.2 18.3 94 0.6 WSW 37 46 20 25 1015.2 1014.1 2.2
20/07:30am 19.7 16.0 19.2 97 0.3 WSW 37 46 20 25 1015.8 1014.7 1.2
20/07:16am 19.9 15.9 19.4 97 0.3 SW 39 63 21 34 1015.3 1014.2 0.8
20/07:00am 20.1 17.5 19.6 97 0.3 WSW 32 39 17 21 1015.7 1014.6 0.4
20/06:30am 20.9 18.4 18.8 88 1.3 SW 30 37 16 20 1014.1 1013.0 0.0
20/06:00am 21.2 19.5 18.2 83 1.9 SSW 24 32 13 17 1012.6 1011.5 0.0
20/05:30am 21.4 18.2 18.2 82 2.0 SSW 32 39 17 21 1012.2 1011.1 0.0
20/05:00am 21.8 18.6 18.2 80 2.3 SW 32 39 17 21 1012.5 1011.4 0.0
20/04:30am 22.2 19.8 18.2 78 2.5 SSW 28 35 15 19 1012.2 1011.1 0.0
20/04:00am 23.0 19.5 17.5 71 3.4 SW 32 37 17 20 1013.0 1011.8 0.0
20/03:30am 23.2 19.6 17.2 69 3.7 SSW 32 37 17 20 1012.3 1011.2 0.0
20/03:00am 23.6 18.6 17.1 67 4.0 SSW 39 44 21 24 1012.4 1011.3 0.0
20/02:30am 24.5 20.8 17.0 63 4.7 SSW 32 41 17 22 1012.6 1011.5 0.0
20/02:00am 24.7 20.4 16.9 62 4.9 SSW 35 41 19 22 1012.6 1011.5 0.0
20/01:30am 25.7 19.9 16.0 55 6.0 SSW 41 52 22 28 1013.1 1011.9 0.0
20/01:00am 26.6 20.4 15.9 51 6.6 SW 43 54 23 29 1013.1 1011.9 0.0
20/12:30am 27.5 21.4 15.2 47 7.5 SW 41 52 22 28 1013.2 1012.0 0.0
20/12:00am 28.4 22.4 14.3 42 8.6 WSW 39 50 21 27 1013.0 1011.8 0.0
 
Date/Time
CDT
Temp
°C
App
Temp
°C
Dew
Point
Rel
Hum
%
Delta-T
°C
Wind Press
QNH
hPa
Press
MSL
hPa
Rain
since 9 am
mm
Dir
 
Spd
km/h
Gust
km/h
Spd
kts
Gust
kts
19/11:30pm 28.8 21.4 14.2 40 8.9 SW 46 56 25 30 1012.4 1011.3 0.0
19/11:13pm 29.9 23.9 13.2 36 10.0 SW 37 50 20 27 1012.3 1011.2 0.0
19/11:00pm 31.8 27.0 11.6 29 11.9 W 28 48 15 26 1012.2 1011.1 0.0
19/10:44pm 32.7 27.1 8.9 23 13.5 W 28 39 15 21 1011.5 1010.4 0.0
19/10:30pm 32.5 27.6 -0.5 12 16.1 NNW 15 20 8 11 1010.8 1009.7 0.0
19/10:00pm 33.0 27.4 -0.2 12 16.3 NE 19 24 10 13 1009.7 1008.5 0.0
19/09:30pm 33.5 27.6 -1.0 11 16.8 NE 20 24 11 13 1009.3 1008.1 0.0
19/09:00pm 34.5 28.7 -0.2 11 17.2 NE 20 24 11 13 1009.2 1008.0 0.0
19/08:30pm 35.3 29.4 -0.9 10 17.9 NE 20 26 11 14 1009.0 1007.8 0.0
19/08:00pm 36.0 30.2 -0.4 10 18.2 NNE 20 26 11 14 1008.8 1007.6 0.0
19/07:30pm 36.5 30.9 0.0 10 18.4 NNE 19 22 10 12 1008.6 1007.4 0.0
19/07:00pm 37.0 31.5 0.4 10 18.6 N 19 24 10 13 1008.6 1007.4 0.0
19/06:30pm 37.1 31.4 0.4 10 18.7 NE 20 24 11 13 1008.6 1007.4 0.0
19/06:00pm 37.5 32.4 0.7 10 18.9 N 17 22 9 12 1009.0 1007.8 0.0
19/05:30pm 37.5 31.8 -0.7 9 19.2 N 19 30 10 16 1009.2 1008.0 0.0
19/05:00pm 37.3 31.2 0.6 10 18.7 NW 22 30 12 16 1009.8 1008.6 0.0
19/04:30pm 37.4 30.0 -0.8 9 19.1 N 28 32 15 17 1010.3 1009.2 0.0
19/04:00pm 38.5 30.6 -1.6 8 19.9 NNW 30 43 16 23 1010.7 1009.6 0.0
19/03:32pm 38.2 30.3 -1.8 8 19.8 N 30 48 16 26 1011.3 1010.2 0.0
19/03:30pm 38.6 30.3 -1.5 8 20.0 N 32 48 17 26 1011.3 1010.2 0.0
19/03:28pm 38.6 30.7 -1.5 8 20.0 N 30 48 16 26 1011.3 1010.2 0.0
19/03:00pm 38.4 30.9 -1.6 8 19.9 N 28 41 15 22 1011.7 1010.6 0.0
19/02:30pm 37.6 29.6 -2.2 8 19.5 N 30 46 16 25 1012.4 1011.3 0.0
19/02:28pm 37.9 30.3 -2.0 8 19.6 N 28 46 15 25 1012.4 1011.3 0.0
19/02:00pm 37.2 28.6 -2.5 8 19.3 NNE 33 43 18 23 1012.9 1011.7 0.0
19/01:32pm 37.3 28.3 -2.4 8 19.3 NNE 35 57 19 31 1013.6 1012.4 0.0
19/01:30pm 36.1 27.0 -3.3 8 18.8 NNE 35 46 19 25 1013.7 1012.5 0.0

Other Formats:

Comma delimited format used in spreadsheet applications
http://www.bom.gov.au/fwo/IDS60801/IDS60801.95458.axf

JavaScript Object Notation format (JSON) in row-major order
http://www.bom.gov.au/fwo/IDS60801/IDS60801.95458.json